createdAt,value
2022-07-26T00:07:53.994Z,99.9
2022-07-26T00:19:53.692Z,99.9
2022-07-26T00:31:53.762Z,99.9
2022-07-26T00:43:53.956Z,99.9
2022-07-26T00:55:54.107Z,99.9
2022-07-26T01:07:53.958Z,99.9
2022-07-26T01:19:53.824Z,99.9
2022-07-26T01:31:53.856Z,99.9
2022-07-26T01:43:53.685Z,99.9
2022-07-26T01:55:53.798Z,99.9
2022-07-26T02:07:53.809Z,99.9
2022-07-26T02:19:53.853Z,99.9
2022-07-26T02:31:53.501Z,99.9
2022-07-26T02:43:53.472Z,99.9
2022-07-26T02:55:53.485Z,99.9
2022-07-26T03:07:53.469Z,99.9
2022-07-26T03:19:53.938Z,99.9
2022-07-26T03:31:53.475Z,99.9
2022-07-26T03:43:53.526Z,99.9
2022-07-26T03:55:53.503Z,99.9
2022-07-26T04:07:53.789Z,99.9
2022-07-26T04:19:53.528Z,99.9
2022-07-26T04:31:53.525Z,99.9
2022-07-26T04:43:53.505Z,99.9
2022-07-26T04:55:53.490Z,99.9
2022-07-26T05:07:54.067Z,99.9
2022-07-26T05:19:54.559Z,99.9
2022-07-26T05:31:54.101Z,99.9
2022-07-26T05:43:53.593Z,99.9
2022-07-26T05:55:53.537Z,99.9
2022-07-26T06:07:54.305Z,99.9
2022-07-26T06:19:54.131Z,99.9
2022-07-26T06:31:54.361Z,99.9
2022-07-26T06:43:54.037Z,99.9
2022-07-26T06:55:54.155Z,99.9
2022-07-26T07:07:54.131Z,99.9
2022-07-26T07:19:54.293Z,99.9
2022-07-26T07:31:54.172Z,99.9
2022-07-26T07:43:54.203Z,99.9
2022-07-26T07:55:55.312Z,99.9
2022-07-26T08:07:53.998Z,99.9
2022-07-26T08:19:59.791Z,99.9
2022-07-26T08:31:54.048Z,99.9
2022-07-26T08:43:54.223Z,99.9
2022-07-26T08:56:06.372Z,99.9
2022-07-26T09:07:53.870Z,99.9
2022-07-26T09:19:53.869Z,99.9
2022-07-26T09:31:53.887Z,99.9
2022-07-26T09:43:54.960Z,99.9
2022-07-26T09:55:53.783Z,99.9
2022-07-26T10:07:53.991Z,99.9
2022-07-26T10:19:53.965Z,99.9
2022-07-26T10:31:53.989Z,99.9
2022-07-26T10:43:54.048Z,99.9
2022-07-26T10:55:54.058Z,98.3
2022-07-26T11:07:53.966Z,99.5
2022-07-26T11:19:53.993Z,98.4
2022-07-26T11:32:00.041Z,98.8
2022-07-26T11:43:53.729Z,98.2
2022-07-26T11:55:53.939Z,99.0
2022-07-26T12:07:53.962Z,99.0
2022-07-26T12:19:54.218Z,98.9
2022-07-26T12:31:54.117Z,98.9
2022-07-26T12:43:53.863Z,97.9
2022-07-26T12:55:54.030Z,98.0
2022-07-26T13:07:54.162Z,95.5
2022-07-26T13:19:53.530Z,96.1
2022-07-26T13:31:53.658Z,92.4
2022-07-26T13:43:53.591Z,93.7
2022-07-26T13:55:53.602Z,96.6
2022-07-26T14:07:53.707Z,96.1
2022-07-26T14:19:53.708Z,95.6
2022-07-26T14:31:53.583Z,95.4
2022-07-26T14:43:55.773Z,95.5
2022-07-26T14:55:53.688Z,95.5
2022-07-26T15:07:53.687Z,95.5
2022-07-26T15:19:53.788Z,95.6
2022-07-26T15:31:53.819Z,95.9
2022-07-26T15:43:53.818Z,95.5
2022-07-26T15:55:53.843Z,95.7
2022-07-26T16:07:53.598Z,95.2
2022-07-26T16:19:53.566Z,95.4
2022-07-26T16:31:53.970Z,95.8
2022-07-26T16:43:53.508Z,95.7
2022-07-26T16:55:53.726Z,96.1
2022-07-26T17:07:53.817Z,98.0
2022-07-26T17:19:53.527Z,98.7
2022-07-26T17:31:53.574Z,99.9
2022-07-26T17:43:53.553Z,99.9
2022-07-26T17:55:54.263Z,99.9
2022-07-26T18:07:54.070Z,99.9
2022-07-26T18:19:53.449Z,99.9
2022-07-26T18:31:53.672Z,99.9
2022-07-26T18:43:53.743Z,99.9
2022-07-26T18:55:53.578Z,99.9
2022-07-26T19:07:53.920Z,99.9
2022-07-26T19:19:54.275Z,99.9
2022-07-26T19:31:53.831Z,99.9
2022-07-26T19:43:53.719Z,99.9
2022-07-26T19:55:53.780Z,99.9
2022-07-26T20:07:53.875Z,99.9
2022-07-26T20:19:53.798Z,99.9
2022-07-26T20:31:53.781Z,99.9
2022-07-26T20:43:53.749Z,99.9
2022-07-26T20:55:53.674Z,99.9
2022-07-26T21:07:59.067Z,99.9
2022-07-26T21:19:53.604Z,99.9
2022-07-26T21:31:53.628Z,99.9
2022-07-26T21:43:53.524Z,99.9
2022-07-26T21:55:53.605Z,99.9
2022-07-26T22:07:53.503Z,99.9
2022-07-26T22:19:53.557Z,99.9
2022-07-26T22:31:54.096Z,99.9
2022-07-26T22:43:53.490Z,99.9
2022-07-26T22:55:53.524Z,99.9
2022-07-26T23:07:53.606Z,99.9
2022-07-26T23:19:53.628Z,99.9
2022-07-26T23:31:54.072Z,99.9
2022-07-26T23:43:54.090Z,99.9
2022-07-26T23:55:53.504Z,99.9
